createdAt,value
2022-12-24T00:00:25.676Z,99639.00
2022-12-24T00:02:55.677Z,99647.00
2022-12-24T00:05:25.592Z,99647.00
2022-12-24T00:07:55.551Z,99643.00
2022-12-24T00:10:28.050Z,99643.00
2022-12-24T00:12:57.892Z,99640.00
2022-12-24T00:15:27.766Z,99645.00
2022-12-24T00:17:57.601Z,99655.00
2022-12-24T00:20:27.591Z,99649.00
2022-12-24T00:22:57.587Z,99641.00
2022-12-24T00:25:30.068Z,99642.00
2022-12-24T00:27:59.950Z,99645.00
2022-12-24T00:30:29.912Z,99639.00
2022-12-24T00:32:59.849Z,99644.00
2022-12-24T00:35:29.712Z,99648.00
2022-12-24T00:37:59.569Z,99647.00
2022-12-24T00:40:32.435Z,99643.00
2022-12-24T00:43:02.426Z,99647.00
2022-12-24T00:45:32.308Z,99646.00
2022-12-24T00:48:02.162Z,99647.00
2022-12-24T00:50:32.029Z,99648.00
2022-12-24T00:53:01.873Z,99651.00
2022-12-24T00:55:34.378Z,99652.00
2022-12-24T00:58:04.232Z,99661.00
2022-12-24T01:00:34.140Z,99660.00
2022-12-24T01:03:04.125Z,99655.00
2022-12-24T01:05:34.169Z,99663.00
2022-12-24T01:08:04.062Z,99673.00
2022-12-24T01:10:36.703Z,99669.00
2022-12-24T01:13:06.955Z,99667.00
2022-12-24T01:15:36.880Z,99677.00
2022-12-24T01:18:06.995Z,99685.00
2022-12-24T01:20:36.900Z,99681.00
2022-12-24T01:23:06.804Z,99674.00
2022-12-24T01:25:40.678Z,99679.00
2022-12-24T01:28:10.552Z,99684.00
2022-12-24T01:30:40.417Z,99686.00
2022-12-24T01:33:10.265Z,99682.00
2022-12-24T01:35:42.500Z,99690.00
2022-12-24T01:38:14.298Z,99693.00
2022-12-24T01:40:59.274Z,99689.00
2022-12-24T01:43:31.905Z,99693.00
2022-12-24T01:46:02.961Z,99695.00
2022-12-24T01:48:40.843Z,99702.00
2022-12-24T01:51:21.722Z,99698.00
2022-12-24T01:53:58.642Z,99707.00
2022-12-24T01:56:32.707Z,99694.00
2022-12-24T01:59:08.526Z,99711.00
2022-12-24T02:01:39.136Z,99708.00
2022-12-24T02:04:18.224Z,99707.00
2022-12-24T02:06:48.176Z,99714.00
2022-12-24T02:09:18.129Z,99722.00
2022-12-24T02:11:50.710Z,99726.00
2022-12-24T02:14:21.643Z,99733.00
2022-12-24T02:17:01.223Z,99730.00
2022-12-24T02:20:11.766Z,99733.00
2022-12-24T02:23:03.340Z,99734.00
2022-12-24T02:25:51.929Z,99742.00
2022-12-24T02:28:55.200Z,99748.00
2022-12-24T02:31:35.532Z,99750.00
2022-12-24T02:34:11.798Z,99754.00
2022-12-24T02:36:46.709Z,99765.00
2022-12-24T02:39:25.279Z,99759.00
2022-12-24T02:42:10.678Z,99772.00
2022-12-24T02:44:46.426Z,99770.00
2022-12-24T02:47:22.634Z,99761.00
2022-12-24T02:49:52.487Z,99768.00
2022-12-24T02:52:34.634Z,99754.00
2022-12-24T02:55:10.236Z,99770.00
2022-12-24T02:57:57.544Z,99786.00
2022-12-24T03:00:28.794Z,99781.00
2022-12-24T03:03:25.810Z,99781.00
2022-12-24T03:06:03.147Z,99791.00
2022-12-24T03:08:42.882Z,99796.00
2022-12-24T03:11:15.937Z,99794.00
2022-12-24T03:13:47.026Z,99799.00
2022-12-24T03:16:20.756Z,99802.00
2022-12-24T03:18:55.517Z,99810.00
2022-12-24T03:21:27.455Z,99811.00
2022-12-24T03:23:58.003Z,99807.00
2022-12-24T03:26:30.040Z,99813.00
2022-12-24T03:28:59.917Z,99806.00
2022-12-24T03:31:29.830Z,99822.00
2022-12-24T03:34:02.353Z,99818.00
2022-12-24T03:36:32.218Z,99828.00
2022-12-24T03:39:02.066Z,99819.00
2022-12-24T03:41:31.933Z,99828.00
2022-12-24T03:44:02.007Z,99835.00
2022-12-24T03:46:31.935Z,99835.00
2022-12-24T03:49:04.584Z,99838.00
2022-12-24T03:51:35.371Z,99834.00
2022-12-24T03:54:05.311Z,99833.00
2022-12-24T03:56:35.160Z,99839.00
2022-12-24T03:59:05.171Z,99845.00
2022-12-24T04:01:35.096Z,99848.00
2022-12-24T04:04:07.719Z,99846.00
2022-12-24T04:06:37.613Z,99856.00
2022-12-24T04:09:07.808Z,99856.00
2022-12-24T04:11:37.725Z,99864.00
2022-12-24T04:14:07.623Z,99868.00
2022-12-24T04:16:37.518Z,99871.00
2022-12-24T04:19:09.971Z,99869.00
2022-12-24T04:21:39.853Z,99863.00
2022-12-24T04:24:10.258Z,99857.00
2022-12-24T04:26:40.091Z,99859.00
2022-12-24T04:29:10.222Z,99867.00
2022-12-24T04:31:40.751Z,99874.00
2022-12-24T04:34:13.291Z,99872.00
2022-12-24T04:36:43.191Z,99868.00
2022-12-24T04:39:13.057Z,99865.00
2022-12-24T04:41:42.938Z,99878.00
2022-12-24T04:44:13.217Z,99879.00
2022-12-24T04:46:43.485Z,99882.00
2022-12-24T04:49:16.347Z,99889.00
2022-12-24T04:51:46.286Z,99893.00
2022-12-24T04:54:16.208Z,99899.00
2022-12-24T04:56:46.062Z,99909.00
2022-12-24T04:59:15.926Z,99903.00
2022-12-24T05:01:45.858Z,99912.00
2022-12-24T05:04:18.369Z,99919.00
2022-12-24T05:06:48.270Z,99931.00
2022-12-24T05:09:18.154Z,99937.00
2022-12-24T05:11:48.015Z,99937.00
2022-12-24T05:14:17.923Z,99937.00
2022-12-24T05:16:47.863Z,99950.00
2022-12-24T05:19:20.350Z,99932.00
2022-12-24T05:22:10.283Z,99939.00
2022-12-24T05:24:52.854Z,99930.00
2022-12-24T05:27:22.826Z,99936.00
2022-12-24T05:29:52.710Z,99937.00
2022-12-24T05:32:22.746Z,99936.00
2022-12-24T05:34:55.167Z,99944.00
2022-12-24T05:37:25.453Z,99947.00
2022-12-24T05:39:55.345Z,99940.00
2022-12-24T05:42:25.235Z,99937.00
2022-12-24T05:44:55.098Z,99947.00
2022-12-24T05:47:24.977Z,99944.00
2022-12-24T05:49:57.451Z,99947.00
2022-12-24T05:52:27.373Z,99941.00
2022-12-24T05:54:57.235Z,99948.00
2022-12-24T05:57:27.161Z,99954.00
2022-12-24T05:59:57.060Z,99949.00
2022-12-24T06:02:26.944Z,99954.00
2022-12-24T06:04:59.412Z,99971.00
2022-12-24T06:07:29.595Z,99969.00
2022-12-24T06:09:59.458Z,99974.00
2022-12-24T06:12:29.613Z,99977.00
2022-12-24T06:14:59.517Z,99959.00
2022-12-24T06:17:29.427Z,99972.00
2022-12-24T06:20:01.912Z,99975.00
2022-12-24T06:22:31.865Z,99968.00
2022-12-24T06:25:01.733Z,99968.00
2022-12-24T06:27:31.595Z,99970.00
2022-12-24T06:30:01.501Z,99978.00
2022-12-24T06:32:31.368Z,99988.00
2022-12-24T06:35:03.912Z,99988.00
2022-12-24T06:37:33.816Z,100005.00
2022-12-24T06:40:03.929Z,100000.00
2022-12-24T06:42:33.890Z,100001.00
2022-12-24T06:45:08.149Z,100010.00
2022-12-24T06:47:38.425Z,100005.00
2022-12-24T06:50:12.382Z,100022.00
2022-12-24T06:52:42.289Z,100036.00
2022-12-24T06:55:13.093Z,100024.00
2022-12-24T06:57:43.136Z,100027.00
2022-12-24T07:00:15.766Z,100031.00
2022-12-24T07:02:46.768Z,100042.00
2022-12-24T07:05:19.486Z,100047.00
2022-12-24T07:07:49.402Z,100047.00
2022-12-24T07:10:24.337Z,100046.00
2022-12-24T07:12:54.271Z,100049.00
2022-12-24T07:15:24.164Z,100049.00
2022-12-24T07:17:54.049Z,100053.00
2022-12-24T07:20:26.570Z,100056.00
2022-12-24T07:22:56.428Z,100061.00
2022-12-24T07:25:26.322Z,100074.00
2022-12-24T07:27:56.411Z,100079.00
2022-12-24T07:30:26.265Z,100070.00
2022-12-24T07:32:56.142Z,100076.00
2022-12-24T07:35:28.598Z,100082.00
2022-12-24T07:37:58.498Z,100083.00
2022-12-24T07:40:28.442Z,100093.00
2022-12-24T07:42:58.337Z,100085.00
2022-12-24T07:45:28.217Z,100092.00
2022-12-24T07:47:58.088Z,100104.00
2022-12-24T07:50:30.689Z,100096.00
2022-12-24T07:53:00.560Z,100093.00
2022-12-24T07:55:30.450Z,100115.00
2022-12-24T07:58:00.335Z,100124.00
2022-12-24T08:00:30.309Z,100112.00
2022-12-24T08:03:00.415Z,100113.00
2022-12-24T08:05:38.128Z,100117.00
2022-12-24T08:08:08.082Z,100135.00
2022-12-24T08:10:37.953Z,100135.00
2022-12-24T08:13:07.860Z,100126.00
2022-12-24T08:15:37.792Z,100136.00
2022-12-24T08:18:08.127Z,100126.00
2022-12-24T08:20:41.383Z,100126.00
2022-12-24T08:23:11.752Z,100127.00
2022-12-24T08:25:45.390Z,100141.00
2022-12-24T08:28:16.766Z,100138.00
2022-12-24T08:30:47.576Z,100141.00
2022-12-24T08:33:17.446Z,100145.00
2022-12-24T08:35:55.296Z,100143.00
2022-12-24T08:38:25.788Z,100141.00
2022-12-24T08:40:57.104Z,100137.00
2022-12-24T08:43:28.183Z,100136.00
2022-12-24T08:45:58.209Z,100135.00
2022-12-24T08:48:28.125Z,100144.00
2022-12-24T08:51:00.669Z,100140.00
2022-12-24T08:53:30.556Z,100149.00
2022-12-24T08:56:05.686Z,100159.00
2022-12-24T08:58:36.058Z,100160.00
2022-12-24T09:01:15.284Z,100159.00
2022-12-24T09:03:46.040Z,100165.00
2022-12-24T09:06:19.176Z,100172.00
2022-12-24T09:08:50.201Z,100163.00
2022-12-24T09:11:22.549Z,100170.00
2022-12-24T09:13:52.608Z,100171.00
2022-12-24T09:16:22.541Z,100174.00
2022-12-24T09:18:52.435Z,100165.00
2022-12-24T09:21:24.936Z,100175.00
2022-12-24T09:23:54.815Z,100170.00
2022-12-24T09:26:26.740Z,100178.00
2022-12-24T09:28:56.819Z,100188.00
2022-12-24T09:31:27.111Z,100194.00
2022-12-24T09:33:57.024Z,100202.00
2022-12-24T09:36:30.381Z,100202.00
2022-12-24T09:39:00.275Z,100201.00
2022-12-24T09:41:47.255Z,100199.00
2022-12-24T09:44:37.880Z,100206.00
2022-12-24T09:47:20.440Z,100209.00
2022-12-24T09:49:55.178Z,100212.00
2022-12-24T09:52:32.166Z,100211.00
2022-12-24T09:55:10.231Z,100221.00
2022-12-24T09:57:43.406Z,100235.00
2022-12-24T10:00:24.026Z,100242.00
2022-12-24T10:02:54.100Z,100248.00
2022-12-24T10:05:36.858Z,100245.00
2022-12-24T10:08:23.907Z,100251.00
2022-12-24T10:10:57.488Z,100240.00
2022-12-24T10:13:46.557Z,100243.00
2022-12-24T10:16:26.065Z,100242.00
2022-12-24T10:19:06.317Z,100254.00
2022-12-24T10:21:50.526Z,100271.00
2022-12-24T10:24:29.023Z,100266.00
2022-12-24T10:27:04.514Z,100275.00
2022-12-24T10:29:39.545Z,100283.00
2022-12-24T10:32:23.373Z,100280.00
2022-12-24T10:35:02.256Z,100278.00
2022-12-24T10:37:33.396Z,100274.00
2022-12-24T10:40:07.076Z,100277.00
2022-12-24T10:42:50.221Z,100279.00
2022-12-24T10:45:24.930Z,100283.00
2022-12-24T10:47:59.064Z,100292.00
2022-12-24T10:50:36.154Z,100294.00
2022-12-24T10:53:17.062Z,100308.00
2022-12-24T10:55:51.076Z,100301.00
2022-12-24T10:58:23.162Z,100300.00
2022-12-24T11:00:55.239Z,100307.00
2022-12-24T11:03:32.441Z,100307.00
2022-12-24T11:06:15.213Z,100322.00
2022-12-24T11:08:48.049Z,100314.00
2022-12-24T11:11:23.638Z,100319.00
2022-12-24T11:13:59.251Z,100316.00
2022-12-24T11:16:33.417Z,100317.00
2022-12-24T11:19:07.652Z,100324.00
2022-12-24T11:21:41.415Z,100341.00
2022-12-24T11:24:28.381Z,100345.00
2022-12-24T11:27:42.245Z,100334.00
2022-12-24T11:30:26.315Z,100341.00
2022-12-24T11:33:21.907Z,100337.00
2022-12-24T11:35:57.096Z,100340.00
2022-12-24T11:38:29.245Z,100338.00
2022-12-24T11:41:07.284Z,100339.00
2022-12-24T11:43:52.736Z,100345.00
2022-12-24T11:46:39.999Z,100351.00
2022-12-24T11:49:20.842Z,100355.00
2022-12-24T11:52:22.642Z,100349.00
2022-12-24T11:55:15.422Z,100362.00
2022-12-24T11:57:55.071Z,100355.00
2022-12-24T12:00:29.562Z,100362.00
2022-12-24T12:03:03.876Z,100363.00
2022-12-24T12:05:38.903Z,100370.00
2022-12-24T12:08:18.340Z,100373.00
2022-12-24T12:10:49.849Z,100375.00
2022-12-24T12:13:25.638Z,100379.00
2022-12-24T12:16:09.280Z,100371.00
2022-12-24T12:18:42.526Z,100381.00
2022-12-24T12:21:17.788Z,100381.00
2022-12-24T12:23:52.597Z,100379.00
2022-12-24T12:26:25.810Z,100381.00
2022-12-24T12:29:01.165Z,100385.00
2022-12-24T12:31:37.698Z,100396.00
2022-12-24T12:34:14.560Z,100387.00
2022-12-24T12:36:49.611Z,100388.00
2022-12-24T12:39:19.627Z,100389.00
2022-12-24T12:41:57.760Z,100389.00
2022-12-24T12:44:52.383Z,100400.00
2022-12-24T12:47:45.494Z,100400.00
2022-12-24T12:50:21.819Z,100408.00
2022-12-24T12:53:07.961Z,100407.00
2022-12-24T12:55:49.222Z,100412.00
2022-12-24T12:58:31.777Z,100414.00
2022-12-24T13:01:09.331Z,100408.00
2022-12-24T13:04:24.450Z,100413.00
2022-12-24T13:07:42.608Z,100417.00
2022-12-24T13:11:01.176Z,100425.00
2022-12-24T13:13:54.968Z,100423.00
2022-12-24T13:17:09.591Z,100420.00
2022-12-24T13:20:13.661Z,100415.00
2022-12-24T13:22:52.807Z,100411.00
2022-12-24T13:25:27.395Z,100415.00
2022-12-24T13:27:57.366Z,100412.00
2022-12-24T13:30:41.989Z,100416.00
2022-12-24T13:33:14.805Z,100421.00
2022-12-24T13:36:01.353Z,100429.00
2022-12-24T13:38:46.585Z,100436.00
2022-12-24T13:41:46.545Z,100429.00
2022-12-24T13:44:32.946Z,100445.00
2022-12-24T13:47:07.716Z,100447.00
2022-12-24T13:49:41.187Z,100445.00
2022-12-24T13:52:21.439Z,100454.00
2022-12-24T13:55:22.495Z,100461.00
2022-12-24T13:58:02.226Z,100469.00
2022-12-24T14:00:43.224Z,100468.00
2022-12-24T14:03:32.165Z,100483.00
2022-12-24T14:06:06.186Z,100481.00
2022-12-24T14:08:42.724Z,100481.00
2022-12-24T14:11:18.547Z,100488.00
2022-12-24T14:14:14.839Z,100484.00
2022-12-24T14:16:55.642Z,100485.00
2022-12-24T14:19:35.442Z,100488.00
2022-12-24T14:22:21.334Z,100501.00
2022-12-24T14:24:58.081Z,100502.00
2022-12-24T14:27:39.485Z,100502.00
2022-12-24T14:30:18.760Z,100503.00
2022-12-24T14:32:50.138Z,100501.00
2022-12-24T14:35:24.831Z,100500.00
2022-12-24T14:38:02.933Z,100507.00
2022-12-24T14:40:35.634Z,100505.00
2022-12-24T14:43:20.978Z,100509.00
2022-12-24T14:46:00.959Z,100509.00
2022-12-24T14:48:41.959Z,100521.00
2022-12-24T14:51:21.629Z,100520.00
2022-12-24T14:54:26.313Z,100524.00
2022-12-24T14:57:31.222Z,100529.00
2022-12-24T15:00:06.393Z,100534.00
2022-12-24T15:02:51.326Z,100540.00
2022-12-24T15:05:28.920Z,100551.00
2022-12-24T15:08:02.371Z,100556.00
2022-12-24T15:10:35.712Z,100558.00
2022-12-24T15:13:09.314Z,100557.00
2022-12-24T15:15:52.026Z,100563.00
2022-12-24T15:18:26.934Z,100559.00
2022-12-24T15:21:04.361Z,100557.00
2022-12-24T15:23:37.351Z,100557.00
2022-12-24T15:26:19.195Z,100548.00
2022-12-24T15:28:49.336Z,100557.00
2022-12-24T15:31:24.478Z,100563.00
2022-12-24T15:33:59.311Z,100555.00
2022-12-24T15:36:34.070Z,100565.00
2022-12-24T15:39:08.272Z,100580.00
2022-12-24T15:42:02.956Z,100582.00
2022-12-24T15:44:38.101Z,100592.00
2022-12-24T15:47:18.322Z,100596.00
2022-12-24T15:49:52.919Z,100591.00
2022-12-24T15:52:27.000Z,100593.00
2022-12-24T15:54:58.416Z,100594.00
2022-12-24T15:57:33.241Z,100599.00
2022-12-24T16:00:05.237Z,100601.00
2022-12-24T16:02:41.800Z,100606.00
2022-12-24T16:05:41.363Z,100611.00
2022-12-24T16:08:31.597Z,100616.00
2022-12-24T16:11:19.379Z,100618.00
2022-12-24T16:14:07.186Z,100614.00
2022-12-24T16:16:43.481Z,100610.00
2022-12-24T16:19:25.600Z,100613.00
2022-12-24T16:21:57.877Z,100618.00
2022-12-24T16:24:30.785Z,100629.00
2022-12-24T16:27:00.904Z,100624.00
2022-12-24T16:29:30.781Z,100633.00
2022-12-24T16:32:02.074Z,100641.00
2022-12-24T16:34:36.104Z,100642.00
2022-12-24T16:37:05.953Z,100642.00
2022-12-24T16:39:37.692Z,100658.00
2022-12-24T16:42:20.492Z,100642.00
2022-12-24T16:44:50.839Z,100642.00
2022-12-24T16:47:24.132Z,100653.00
2022-12-24T16:49:56.779Z,100651.00
2022-12-24T16:52:29.861Z,100653.00
2022-12-24T16:55:00.469Z,100655.00
2022-12-24T16:57:31.398Z,100657.00
2022-12-24T17:00:01.232Z,100668.00
2022-12-24T17:02:31.365Z,100675.00
2022-12-24T17:05:03.998Z,100673.00
2022-12-24T17:07:37.115Z,100662.00
2022-12-24T17:10:13.882Z,100666.00
2022-12-24T17:12:43.957Z,100674.00
2022-12-24T17:15:14.371Z,100669.00
2022-12-24T17:17:44.280Z,100676.00
2022-12-24T17:20:22.073Z,100681.00
2022-12-24T17:22:54.257Z,100689.00
2022-12-24T17:25:24.248Z,100691.00
2022-12-24T17:27:54.122Z,100685.00
2022-12-24T17:30:24.163Z,100681.00
2022-12-24T17:32:54.057Z,100683.00
2022-12-24T17:35:26.500Z,100700.00
2022-12-24T17:37:56.373Z,100696.00
2022-12-24T17:40:26.227Z,100695.00
2022-12-24T17:42:56.066Z,100704.00
2022-12-24T17:45:26.114Z,100707.00
2022-12-24T17:47:56.040Z,100712.00
2022-12-24T17:50:28.526Z,100709.00
2022-12-24T17:52:58.877Z,100710.00
2022-12-24T17:55:28.855Z,100706.00
2022-12-24T17:57:59.551Z,100707.00
2022-12-24T18:00:32.972Z,100713.00
2022-12-24T18:03:03.489Z,100716.00
2022-12-24T18:05:37.887Z,100719.00
2022-12-24T18:08:09.517Z,100726.00
2022-12-24T18:10:39.510Z,100727.00
2022-12-24T18:13:15.515Z,100725.00
2022-12-24T18:15:49.012Z,100739.00
2022-12-24T18:18:18.958Z,100747.00
2022-12-24T18:20:51.455Z,100746.00
2022-12-24T18:23:21.308Z,100744.00
2022-12-24T18:25:51.233Z,100754.00
2022-12-24T18:28:21.145Z,100747.00
2022-12-24T18:31:01.253Z,100754.00
2022-12-24T18:33:32.147Z,100752.00
2022-12-24T18:36:05.023Z,100751.00
2022-12-24T18:38:35.170Z,100745.00
2022-12-24T18:41:07.110Z,100749.00
2022-12-24T18:43:37.444Z,100746.00
2022-12-24T18:46:10.752Z,100753.00
2022-12-24T18:48:40.958Z,100752.00
2022-12-24T18:51:14.602Z,100761.00
2022-12-24T18:53:44.782Z,100762.00
2022-12-24T18:56:17.420Z,100769.00
2022-12-24T18:58:48.593Z,100764.00
2022-12-24T19:01:22.258Z,100766.00
2022-12-24T19:03:53.143Z,100766.00
2022-12-24T19:06:26.904Z,100773.00
2022-12-24T19:08:59.630Z,100779.00
2022-12-24T19:11:33.896Z,100776.00
2022-12-24T19:14:05.424Z,100769.00
2022-12-24T19:16:39.148Z,100780.00
2022-12-24T19:19:11.684Z,100777.00
2022-12-24T19:21:47.171Z,100784.00
2022-12-24T19:24:17.051Z,100782.00
2022-12-24T19:26:46.927Z,100776.00
2022-12-24T19:29:16.790Z,100777.00
2022-12-24T19:31:47.540Z,100784.00
2022-12-24T19:34:17.597Z,100782.00
2022-12-24T19:36:50.561Z,100779.00
2022-12-24T19:39:20.407Z,100772.00
2022-12-24T19:41:50.354Z,100787.00
2022-12-24T19:44:20.381Z,100799.00
2022-12-24T19:46:50.327Z,100801.00
2022-12-24T19:49:20.307Z,100805.00
2022-12-24T19:51:54.769Z,100809.00
2022-12-24T19:54:24.789Z,100809.00
2022-12-24T19:56:54.734Z,100823.00
2022-12-24T19:59:26.489Z,100829.00
2022-12-24T20:01:56.719Z,100823.00
2022-12-24T20:04:26.768Z,100826.00
2022-12-24T20:07:00.727Z,100814.00
2022-12-24T20:09:32.732Z,100813.00
2022-12-24T20:12:02.908Z,100828.00
2022-12-24T20:14:32.772Z,100827.00
2022-12-24T20:17:02.703Z,100828.00
2022-12-24T20:19:32.649Z,100819.00
2022-12-24T20:22:05.149Z,100815.00
2022-12-24T20:24:35.103Z,100822.00
2022-12-24T20:27:04.981Z,100818.00
2022-12-24T20:29:34.837Z,100833.00
2022-12-24T20:32:04.744Z,100838.00
2022-12-24T20:34:36.759Z,100844.00
2022-12-24T20:37:09.507Z,100838.00
2022-12-24T20:39:39.533Z,100831.00
2022-12-24T20:42:09.397Z,100839.00
2022-12-24T20:44:39.254Z,100846.00
2022-12-24T20:47:09.108Z,100839.00
2022-12-24T20:49:38.961Z,100843.00
2022-12-24T20:52:11.435Z,100848.00
2022-12-24T20:54:41.555Z,100844.00
2022-12-24T20:57:11.412Z,100845.00
2022-12-24T20:59:41.316Z,100853.00
2022-12-24T21:02:13.213Z,100856.00
2022-12-24T21:04:43.214Z,100852.00
2022-12-24T21:07:15.736Z,100854.00
2022-12-24T21:09:45.912Z,100856.00
2022-12-24T21:12:28.294Z,100858.00
2022-12-24T21:14:58.174Z,100858.00
2022-12-24T21:17:29.728Z,100864.00
2022-12-24T21:20:00.663Z,100854.00
2022-12-24T21:22:33.202Z,100863.00
2022-12-24T21:25:03.056Z,100866.00
2022-12-24T21:27:33.175Z,100865.00
2022-12-24T21:30:03.108Z,100869.00
2022-12-24T21:32:32.966Z,100881.00
2022-12-24T21:35:02.901Z,100883.00
2022-12-24T21:37:35.379Z,100875.00
2022-12-24T21:40:06.010Z,100891.00
2022-12-24T21:42:36.566Z,100886.00
2022-12-24T21:45:09.578Z,100882.00
2022-12-24T21:47:39.583Z,100895.00
2022-12-24T21:50:31.631Z,100898.00
2022-12-24T21:53:16.751Z,100900.00
2022-12-24T21:55:46.700Z,100903.00
2022-12-24T21:58:14.014Z,100909.00
2022-12-24T22:00:44.105Z,100917.00
2022-12-24T22:03:13.998Z,100917.00
2022-12-24T22:05:43.886Z,100923.00
2022-12-24T22:08:28.883Z,100925.00
2022-12-24T22:11:26.664Z,100930.00
2022-12-24T22:13:56.522Z,100932.00
2022-12-24T22:16:26.457Z,100928.00
2022-12-24T22:18:56.448Z,100939.00
2022-12-24T22:21:26.305Z,100933.00
2022-12-24T22:23:58.731Z,100934.00
2022-12-24T22:26:28.613Z,100943.00
2022-12-24T22:28:58.463Z,100940.00
2022-12-24T22:31:28.420Z,100937.00
2022-12-24T22:33:58.319Z,100943.00
2022-12-24T22:36:28.241Z,100945.00
2022-12-24T22:39:00.676Z,100937.00
2022-12-24T22:41:30.615Z,100954.00
2022-12-24T22:44:00.545Z,100958.00
2022-12-24T22:46:30.475Z,100955.00
2022-12-24T22:49:00.408Z,100972.00
2022-12-24T22:51:30.266Z,100965.00
2022-12-24T22:54:03.181Z,100969.00
2022-12-24T22:56:38.825Z,100970.00
2022-12-24T22:59:11.273Z,100972.00
2022-12-24T23:01:43.906Z,100980.00
2022-12-24T23:04:14.746Z,100985.00
2022-12-24T23:06:44.933Z,100984.00
2022-12-24T23:09:19.000Z,100988.00
2022-12-24T23:11:48.899Z,100983.00
2022-12-24T23:14:33.719Z,100992.00
2022-12-24T23:17:03.696Z,100992.00
2022-12-24T23:19:34.606Z,100996.00
2022-12-24T23:22:06.391Z,100990.00
2022-12-24T23:24:40.184Z,100983.00
2022-12-24T23:27:10.821Z,100990.00
2022-12-24T23:29:40.739Z,101005.00
2022-12-24T23:32:10.617Z,100989.00
2022-12-24T23:34:40.481Z,101000.00
2022-12-24T23:37:10.318Z,101001.00
2022-12-24T23:39:42.759Z,100997.00
2022-12-24T23:42:12.605Z,101000.00
2022-12-24T23:44:43.741Z,100996.00
2022-12-24T23:47:13.579Z,100992.00
2022-12-24T23:49:43.437Z,100992.00
2022-12-24T23:52:13.361Z,100993.00
2022-12-24T23:54:46.056Z,100992.00
2022-12-24T23:57:15.916Z,100997.00
2022-12-24T23:59:46.153Z,100989.00
